createdAt,value
2022-12-16T03:33:01.355Z,0.1
2022-12-16T03:36:01.132Z,0.3
2022-12-16T03:38:01.144Z,0.4
2022-12-16T03:39:06.116Z,0.5
2022-12-16T03:41:01.323Z,0.6
2022-12-16T03:42:01.117Z,0.7
2022-12-16T03:46:02.372Z,0.9
2022-12-16T03:48:01.110Z,1.0
2022-12-16T03:55:01.402Z,0.9
2022-12-16T03:57:01.099Z,0.8
2022-12-16T03:58:01.104Z,0.7
2022-12-16T04:01:01.113Z,0.5
2022-12-16T04:03:01.507Z,0.4
2022-12-16T04:04:01.184Z,0.3
2022-12-16T04:06:01.591Z,0.2
2022-12-16T04:07:01.116Z,0.1
2022-12-16T06:28:01.220Z,0.1
2022-12-16T06:30:01.120Z,0.2
2022-12-16T06:31:01.877Z,0.3
2022-12-16T06:33:01.237Z,0.4
2022-12-16T06:34:01.119Z,0.5
2022-12-16T06:36:01.360Z,0.6
2022-12-16T06:37:01.117Z,0.7
2022-12-16T06:40:01.105Z,0.9
2022-12-16T06:41:06.915Z,1.0
2022-12-16T06:42:01.106Z,1.1
2022-12-16T06:43:06.221Z,1.3
2022-12-16T06:44:01.102Z,1.5
2022-12-16T06:45:01.143Z,1.7
2022-12-16T06:46:02.957Z,1.9
2022-12-16T06:47:01.106Z,2.1
2022-12-16T06:48:01.107Z,2.3
2022-12-16T06:49:01.103Z,2.6
2022-12-16T06:50:01.112Z,3.0
2022-12-16T06:51:01.393Z,3.4
2022-12-16T06:52:01.125Z,3.8
2022-12-16T06:53:01.103Z,4.4
2022-12-16T06:54:01.106Z,5.0
2022-12-16T06:55:01.114Z,5.8
2022-12-16T06:56:01.817Z,6.6
2022-12-16T06:57:01.118Z,7.4
2022-12-16T06:58:01.861Z,8.5
2022-12-16T06:59:01.134Z,9.7
2022-12-16T07:00:01.381Z,11.3
2022-12-16T07:01:32.223Z,13.0
2022-12-16T07:02:01.317Z,14.7
2022-12-16T07:03:01.231Z,17.1
2022-12-16T07:04:01.184Z,19.6
2022-12-16T07:05:01.108Z,23.3
2022-12-16T07:06:01.148Z,26.9
2022-12-16T07:33:00.431Z,1486.3
2022-12-16T07:34:00.317Z,1535.0
2022-12-16T07:35:00.557Z,1619.7
2022-12-16T07:36:00.379Z,1680.1
2022-12-16T07:37:00.317Z,1725.5
2022-12-16T07:38:00.348Z,1800.4
2022-12-16T07:39:00.316Z,1860.4
2022-12-16T07:40:00.534Z,1936.8
2022-12-16T07:41:00.311Z,2000.5
2022-12-16T07:42:00.318Z,2054.4
2022-12-16T07:43:00.377Z,2124.5
2022-12-16T07:44:00.328Z,2185.3
2022-12-16T07:45:00.612Z,2319.1
2022-12-16T07:46:00.397Z,2453.0
2022-12-16T07:47:00.321Z,2586.9
2022-12-16T07:48:00.675Z,2720.6
2022-12-16T07:49:00.324Z,2854.3
2022-12-16T07:50:00.589Z,2993.2
2022-12-16T07:51:05.319Z,3132.1
2022-12-16T07:52:00.316Z,3270.9
2022-12-16T07:53:00.361Z,3418.5
2022-12-16T07:54:00.318Z,3566.0
2022-12-16T07:56:00.350Z,3875.1
2022-12-16T07:57:00.327Z,4029.6
2022-12-16T07:58:01.401Z,4193.3
2022-12-16T07:59:00.324Z,4356.9
2022-12-16T08:01:02.714Z,4713.3
2022-12-16T08:02:00.474Z,4891.5
2022-12-16T08:03:00.530Z,5086.3
2022-12-16T08:04:00.423Z,5281.1
2022-12-16T08:05:01.097Z,5500.4
2022-12-16T08:06:00.333Z,5719.7
2022-12-16T08:07:00.353Z,5938.9
2022-12-16T08:08:00.383Z,6194.3
2022-12-16T08:09:00.391Z,6449.6
2022-12-16T08:10:00.596Z,6761.7
2022-12-16T08:11:00.326Z,7073.9
2022-12-16T08:12:00.327Z,7386.0
2022-12-16T08:13:00.390Z,7732.1
2022-12-16T08:14:00.350Z,8078.1
2022-12-16T08:16:00.327Z,8807.1
2022-12-16T08:17:00.407Z,9171.5
2022-12-16T08:18:00.456Z,9546.7
2022-12-16T08:19:00.326Z,9921.8
2022-12-16T08:21:00.352Z,10545.7
2022-12-16T08:22:00.327Z,10857.6
2022-12-16T08:23:00.377Z,11098.9
2022-12-16T08:24:00.326Z,11340.3
2022-12-16T08:25:00.538Z,11562.7
2022-12-16T08:26:00.337Z,11785.1
2022-12-16T08:27:00.340Z,12007.5
2022-12-16T08:28:00.368Z,12282.1
2022-12-16T08:31:00.359Z,13214.9
2022-12-16T08:32:00.329Z,13544.1
2022-12-16T08:33:05.157Z,13919.3
2022-12-16T08:34:00.388Z,14294.5
2022-12-16T08:36:00.337Z,15061.5
2022-12-16T08:37:00.328Z,15445.1
2022-12-16T08:38:00.379Z,15775.7
2022-12-16T08:39:00.446Z,16106.4
2022-12-16T08:40:26.013Z,16335.6
2022-12-16T08:41:00.313Z,16564.8
2022-12-16T08:42:00.334Z,16794.0
2022-12-16T08:43:00.373Z,16942.9
2022-12-16T08:44:00.341Z,17091.7
2022-12-16T08:46:00.824Z,17263.1
2022-12-16T08:47:00.332Z,17348.7
2022-12-16T08:48:05.342Z,17374.9
2022-12-16T08:49:00.330Z,17401.0
2022-12-16T09:10:01.205Z,32312.0
2022-12-16T09:13:00.220Z,33085.3
2022-12-16T09:14:00.199Z,33549.2
2022-12-16T09:15:00.934Z,34699.3
2022-12-16T09:16:00.273Z,35520.9
2022-12-16T09:17:00.162Z,36137.0
2022-12-16T09:18:00.152Z,36649.0
2022-12-16T09:19:00.191Z,37058.6
2022-12-16T09:20:00.372Z,37244.4
2022-12-16T09:21:00.152Z,37399.2
2022-12-16T09:22:00.151Z,37530.2
2022-12-16T09:23:00.157Z,37430.1
2022-12-16T09:24:00.184Z,37343.3
2022-12-16T09:25:00.981Z,37499.1
2022-12-16T09:26:00.333Z,37654.9
2022-12-16T09:27:00.201Z,37810.7
2022-12-16T09:28:00.159Z,37724.5
2022-12-16T09:29:00.197Z,37638.2
2022-12-16T09:30:01.026Z,37225.7
2022-12-16T09:31:00.313Z,36813.3
2022-12-16T09:32:00.161Z,36400.8
2022-12-16T09:33:00.180Z,36015.4
2022-12-16T09:34:00.192Z,35630.0
2022-12-16T09:35:00.376Z,35965.3
2022-12-16T09:36:01.182Z,36300.5
2022-12-16T09:37:00.165Z,36635.8
2022-12-16T09:38:01.186Z,36587.8
2022-12-16T09:39:00.204Z,36539.8
2022-12-16T09:40:15.265Z,37798.2
2022-12-16T09:41:00.654Z,39056.6
2022-12-16T09:42:00.302Z,40315.0
2022-12-16T09:43:00.173Z,42378.5
2022-12-16T09:44:00.248Z,44441.9
2022-12-16T09:45:01.167Z,45958.5
2022-12-16T09:46:00.744Z,47475.0
2022-12-16T09:47:04.922Z,48991.5
2022-12-16T09:48:00.259Z,51029.6
2022-12-16T09:49:00.592Z,53067.7
2022-12-16T09:50:00.182Z,54494.6
2022-12-16T09:51:00.390Z,55921.5
2022-12-16T09:52:00.159Z,57348.5
2022-12-16T09:53:00.160Z,59356.9
2022-12-16T09:54:00.393Z,61365.3
2022-12-16T09:55:00.174Z,62165.9
2022-12-16T09:56:00.724Z,62966.6
2022-12-16T09:57:00.173Z,63767.3
2022-12-16T09:58:00.194Z,63798.7
2022-12-16T09:59:00.202Z,63830.2
2022-12-16T10:01:00.436Z,64966.7
2022-12-16T10:02:00.275Z,65535.0
2022-12-16T10:15:01.214Z,65535.0
2022-12-16T10:30:06.143Z,65535.0
2022-12-16T11:00:01.730Z,65535.0
2022-12-16T11:05:22.121Z,65535.0
2022-12-16T11:35:01.948Z,65535.0
2022-12-16T11:41:01.121Z,64030.3
2022-12-16T11:42:00.907Z,62901.8
2022-12-16T11:43:06.488Z,61511.3
2022-12-16T11:44:00.911Z,60399.0
2022-12-16T11:46:01.143Z,59992.8
2022-12-16T11:47:01.044Z,60419.1
2022-12-16T11:48:00.877Z,59386.4
2022-12-16T11:49:00.879Z,58491.3
2022-12-16T11:50:00.901Z,57186.4
2022-12-16T11:51:01.152Z,55720.9
2022-12-16T11:52:21.063Z,54255.5
2022-12-16T11:53:00.877Z,52977.9
2022-12-16T11:54:00.886Z,51700.3
2022-12-16T11:55:00.889Z,50422.7
2022-12-16T11:56:07.893Z,49992.9
2022-12-16T11:57:00.961Z,49563.2
2022-12-16T11:58:01.022Z,50181.4
2022-12-16T11:59:00.944Z,50799.6
2022-12-16T12:01:06.230Z,50219.7
2022-12-16T12:02:00.955Z,49021.7
2022-12-16T12:03:00.957Z,49686.3
2022-12-16T12:04:01.035Z,50351.0
2022-12-16T12:05:00.932Z,51015.7
2022-12-16T12:06:01.092Z,52481.1
2022-12-16T12:07:00.913Z,53946.6
2022-12-16T12:08:00.927Z,55224.2
2022-12-16T12:09:00.884Z,56501.8
2022-12-16T12:11:01.157Z,58911.3
2022-12-16T12:12:00.880Z,60043.3
2022-12-16T12:13:00.942Z,60434.9
2022-12-16T12:14:00.969Z,60826.5
2022-12-16T12:15:01.510Z,61218.1
2022-12-16T12:16:02.045Z,62416.1
2022-12-16T12:17:00.883Z,63614.2
2022-12-16T12:18:00.915Z,63780.8
2022-12-16T12:19:00.887Z,63947.4
2022-12-16T12:20:01.802Z,64114.0
2022-12-16T12:21:01.103Z,63532.3
2022-12-16T12:22:00.885Z,62950.5
2022-12-16T12:23:00.948Z,62226.4
2022-12-16T12:24:00.903Z,61502.3
2022-12-16T12:25:01.465Z,60778.1
2022-12-16T12:26:01.099Z,59774.1
2022-12-16T12:27:00.899Z,58770.1
2022-12-16T12:28:00.950Z,57709.4
2022-12-16T12:29:00.931Z,56648.7
2022-12-16T12:30:01.472Z,55587.9
2022-12-16T12:31:01.226Z,54624.3
2022-12-16T12:32:00.966Z,53660.7
2022-12-16T12:33:01.215Z,53021.8
2022-12-16T12:34:00.963Z,52382.9
2022-12-16T12:35:01.548Z,51743.9
2022-12-16T12:36:01.401Z,50855.7
2022-12-16T12:37:00.971Z,49967.5
2022-12-16T12:38:00.953Z,48787.0
2022-12-16T12:39:01.342Z,47606.5
2022-12-16T12:40:00.909Z,46425.9
2022-12-16T12:41:01.108Z,45397.6
2022-12-16T12:42:00.891Z,44369.3
2022-12-16T12:43:00.929Z,43324.9
2022-12-16T12:44:00.899Z,42280.5
2022-12-16T12:46:01.126Z,40033.2
2022-12-16T12:47:00.967Z,38830.3
2022-12-16T12:48:00.932Z,37741.9
2022-12-16T12:49:00.903Z,36653.5
2022-12-16T12:50:00.907Z,35565.1
2022-12-16T12:51:01.108Z,34796.9
2022-12-16T12:52:00.896Z,34028.7
2022-12-16T12:53:01.010Z,33657.7
2022-12-16T12:54:00.952Z,33286.6
2022-12-16T12:55:01.621Z,32915.5
2022-12-16T12:56:01.104Z,32641.3
2022-12-16T12:57:00.903Z,32367.1
2022-12-16T12:58:00.940Z,32137.5
2022-12-16T12:59:00.901Z,31907.9
2022-12-16T13:01:03.842Z,31478.1
2022-12-16T13:02:01.147Z,31277.9
2022-12-16T13:03:01.060Z,31078.5
2022-12-16T13:04:00.904Z,30879.0
2022-12-16T13:06:01.108Z,30479.3
2022-12-16T13:07:00.906Z,30279.1
2022-12-16T13:08:00.969Z,30086.7
2022-12-16T13:09:00.946Z,29894.2
2022-12-16T13:11:01.144Z,29512.5
2022-12-16T13:12:00.897Z,29323.3
2022-12-16T13:13:01.018Z,29138.5
2022-12-16T13:14:00.901Z,28953.7
2022-12-16T13:16:01.199Z,28581.5
2022-12-16T13:17:00.920Z,28394.1
2022-12-16T13:18:00.947Z,28206.3
2022-12-16T13:19:03.751Z,28018.5
2022-12-16T13:21:01.126Z,27639.2
2022-12-16T13:22:00.906Z,27447.7
2022-12-16T13:23:00.970Z,27253.4
2022-12-16T13:24:00.905Z,27059.1
2022-12-16T13:25:00.934Z,26864.9
2022-12-16T13:26:01.265Z,26659.0
2022-12-16T13:27:00.992Z,26453.1
2022-12-16T13:28:01.026Z,26230.3
2022-12-16T13:29:00.913Z,26007.5
2022-12-16T13:31:01.134Z,25558.8
2022-12-16T13:32:01.080Z,25332.9
2022-12-16T13:33:01.036Z,25106.1
2022-12-16T13:34:00.912Z,24879.3
2022-12-16T13:36:01.154Z,24430.5
2022-12-16T13:37:00.943Z,24208.6
2022-12-16T13:38:01.110Z,23983.5
2022-12-16T13:39:00.943Z,23758.5
2022-12-16T13:40:00.955Z,23533.4
2022-12-16T13:41:01.206Z,23313.4
2022-12-16T13:42:00.912Z,23093.4
2022-12-16T13:43:00.963Z,22872.1
2022-12-16T13:44:00.938Z,22650.7
2022-12-16T13:45:01.542Z,22429.4
2022-12-16T13:46:01.316Z,22209.0
2022-12-16T13:47:00.992Z,21988.6
2022-12-16T13:48:00.959Z,21771.3
2022-12-16T13:49:01.011Z,21554.1
2022-12-16T13:50:01.498Z,21336.8
2022-12-16T13:51:06.644Z,21111.1
2022-12-16T13:52:00.920Z,20885.3
2022-12-16T13:53:01.378Z,20623.2
2022-12-16T13:54:00.909Z,20361.1
2022-12-16T13:55:01.552Z,20098.9
2022-12-16T13:56:01.115Z,19827.5
2022-12-16T13:57:00.909Z,19556.0
2022-12-16T13:58:00.919Z,19288.8
2022-12-16T13:59:01.103Z,19021.6
2022-12-16T14:01:02.744Z,18486.1
2022-12-16T14:02:01.073Z,18217.9
2022-12-16T14:03:00.956Z,17945.8
2022-12-16T14:04:00.993Z,17673.7
2022-12-16T14:06:01.126Z,17141.6
2022-12-16T14:07:01.131Z,16881.5
2022-12-16T14:08:00.920Z,16647.1
2022-12-16T14:09:00.958Z,16412.7
2022-12-16T14:10:01.842Z,16178.3
2022-12-16T14:11:01.129Z,15924.6
2022-12-16T14:12:00.916Z,15670.9
2022-12-16T14:13:00.910Z,15413.8
2022-12-16T14:14:00.973Z,15156.7
2022-12-16T14:16:01.147Z,14632.3
2022-12-16T14:17:00.972Z,14364.9
2022-12-16T14:18:00.934Z,14081.4
2022-12-16T14:19:00.953Z,13797.9
2022-12-16T14:21:01.210Z,13223.4
2022-12-16T14:22:00.944Z,12932.3
2022-12-16T14:23:00.940Z,12687.7
2022-12-16T14:24:01.457Z,12405.0
2022-12-16T14:25:01.556Z,12122.3
2022-12-16T14:26:01.247Z,11863.5
2022-12-16T14:27:00.930Z,11604.7
2022-12-16T14:28:00.977Z,11387.0
2022-12-16T14:29:00.977Z,11124.6
2022-12-16T14:30:01.550Z,10862.2
2022-12-16T14:31:01.167Z,10601.0
2022-12-16T14:32:00.989Z,10339.8
2022-12-16T14:33:00.938Z,10130.4
2022-12-16T14:34:00.991Z,9870.1
2022-12-16T14:35:01.521Z,9609.7
2022-12-16T14:36:01.187Z,9342.6
2022-12-16T14:37:00.927Z,9075.5
2022-12-16T14:38:00.971Z,8808.3
2022-12-16T14:39:00.961Z,8537.7
2022-12-16T14:40:01.447Z,8267.0
2022-12-16T14:41:01.172Z,7995.8
2022-12-16T14:42:00.944Z,7724.6
2022-12-16T14:43:00.927Z,7453.4
2022-12-16T14:44:00.977Z,7188.7
2022-12-16T14:45:01.813Z,6923.9
2022-12-16T14:46:01.156Z,6669.0
2022-12-16T14:47:00.979Z,6414.1
2022-12-16T14:48:01.019Z,6159.1
2022-12-16T14:49:00.976Z,5919.1
2022-12-16T14:50:01.574Z,5679.0
2022-12-16T14:51:01.917Z,5452.1
2022-12-16T14:52:01.003Z,5225.3
2022-12-16T14:53:00.979Z,4998.4
2022-12-16T14:54:01.346Z,4780.7
2022-12-16T14:55:01.457Z,4562.9
2022-12-16T14:56:01.142Z,4354.1
2022-12-16T14:57:00.935Z,4145.3
2022-12-16T14:58:01.000Z,3936.5
2022-12-16T14:59:00.941Z,3738.1
2022-12-16T15:00:01.611Z,3539.7
2022-12-16T15:01:01.203Z,3353.5
2022-12-16T15:02:01.147Z,3167.3
2022-12-16T15:03:01.436Z,2981.1
2022-12-16T15:04:01.127Z,2808.4
2022-12-16T15:05:02.002Z,2635.7
2022-12-16T15:06:01.158Z,2477.0
2022-12-16T15:07:00.938Z,2318.3
2022-12-16T15:08:01.043Z,2159.7
2022-12-16T15:09:00.942Z,2015.9
2022-12-16T15:10:06.627Z,1872.2
2022-12-16T15:11:01.163Z,1743.8
2022-12-16T15:12:00.941Z,1615.4
2022-12-16T15:13:00.943Z,1487.0
2022-12-16T15:14:03.834Z,1374.1
2022-12-16T15:16:01.161Z,1162.9
2022-12-16T15:17:01.001Z,1064.7
2022-12-16T15:18:00.995Z,966.5
2022-12-16T15:19:00.971Z,882.8
2022-12-16T15:21:01.218Z,729.3
2022-12-16T15:22:01.040Z,659.5
2022-12-16T15:23:00.996Z,589.7
2022-12-16T15:24:00.964Z,532.5
2022-12-16T15:26:04.139Z,429.6
2022-12-16T15:27:01.162Z,383.8
2022-12-16T15:28:00.966Z,338.0
2022-12-16T15:29:00.949Z,301.9
2022-12-16T15:31:01.190Z,237.7
2022-12-16T15:32:03.441Z,209.7
2022-12-16T15:33:00.950Z,181.7
2022-12-16T15:34:00.960Z,160.4
2022-12-16T15:35:01.784Z,139.1
2022-12-16T15:36:02.727Z,123.1
2022-12-16T15:37:00.954Z,107.2
2022-12-16T15:38:04.383Z,91.3
2022-12-16T15:39:00.958Z,79.7
2022-12-16T15:41:01.150Z,59.7
2022-12-16T15:42:00.949Z,51.4
2022-12-16T15:43:00.948Z,43.1
2022-12-16T15:44:00.959Z,37.2
2022-12-16T15:46:01.226Z,27.3
2022-12-16T15:47:00.955Z,23.3
2022-12-16T15:48:00.953Z,19.3
2022-12-16T15:49:00.959Z,16.7
2022-12-16T15:51:01.181Z,12.4
2022-12-16T15:52:00.977Z,10.7
2022-12-16T15:53:00.957Z,8.9
2022-12-16T15:54:01.114Z,7.7
2022-12-16T15:56:05.069Z,5.8
2022-12-16T15:57:00.953Z,5.1
2022-12-16T15:58:00.952Z,4.3
2022-12-16T15:59:00.959Z,3.8
2022-12-16T16:01:01.259Z,2.9
2022-12-16T16:02:04.697Z,2.6
2022-12-16T16:03:01.091Z,2.3
2022-12-16T16:04:01.009Z,2.0
2022-12-16T16:05:01.567Z,1.7
2022-12-16T16:06:01.205Z,1.5
2022-12-16T16:07:00.956Z,1.3
2022-12-16T16:08:03.785Z,1.1
2022-12-16T16:09:00.960Z,1.0
2022-12-16T16:10:01.610Z,0.9
2022-12-16T16:11:01.174Z,0.7
2022-12-16T16:12:00.953Z,0.6
2022-12-16T16:13:00.961Z,0.5
2022-12-16T16:14:06.339Z,0.4
2022-12-16T16:17:01.365Z,0.2
2022-12-16T16:18:00.981Z,0.1
